Time;durP1;ratioP1;P1;durP2;ratioP2;P2;SDS_P1;SDS_P2;PMS_P1;PMS_P2;Temp;Humidity;BMP_temperature;BMP_pressure;BME280_temperature;BME280_humidity;BME280_pressure;Samples;Min_cycle;Max_cycle;Signal;HPM_P1;HPM_P2
2022/04/23 00:02:24;;;;;;;0.50;0.50;;;;;;;6.73;79.06;99322.78;5137815;27;20420;-82
2022/04/23 00:04:52;;;;;;;0.50;0.50;;;;;;;6.69;79.22;99322.41;5137249;27;20047;-82
2022/04/23 00:07:19;;;;;;;0.40;0.40;;;;;;;6.65;79.38;99315.78;5117674;27;20125;-81
2022/04/23 00:09:46;;;;;;;0.40;0.40;;;;;;;6.60;79.90;99323.66;5135807;27;20046;-80
2022/04/23 00:12:13;;;;;;;0.50;0.50;;;;;;;6.55;79.94;99311.91;5135631;27;20057;-80
2022/04/23 00:14:40;;;;;;;0.50;0.50;;;;;;;6.48;80.17;99319.97;5135588;27;20096;-80
2022/04/23 00:17:08;;;;;;;0.50;0.50;;;;;;;6.39;80.26;99314.03;5117386;27;20509;-81
2022/04/23 00:19:35;;;;;;;0.50;0.50;;;;;;;6.34;80.58;99319.19;5120349;27;20071;-80
2022/04/23 00:22:03;;;;;;;0.40;0.40;;;;;;;6.33;80.88;99316.69;5142546;27;20035;-79
2022/04/23 00:24:30;;;;;;;0.50;0.50;;;;;;;6.27;80.93;99315.69;5137545;27;20103;-81
2022/04/23 00:26:57;;;;;;;0.50;0.50;;;;;;;6.21;81.16;99313.84;5137275;27;20054;-79
2022/04/23 00:29:24;;;;;;;0.40;0.40;;;;;;;6.23;81.15;99317.16;5136790;27;20082;-80
2022/04/23 00:31:51;;;;;;;0.50;0.50;;;;;;;6.27;80.80;99324.53;5135917;27;20072;-80
2022/04/23 00:34:20;;;;;;;0.50;0.50;;;;;;;6.40;80.39;99325.56;5116879;27;20050;-80
2022/04/23 00:36:47;;;;;;;0.50;0.50;;;;;;;6.51;80.27;99327.63;5135178;27;20505;-80
2022/04/23 00:39:14;;;;;;;0.50;0.50;;;;;;;6.57;80.07;99334.81;5120774;27;20550;-81
2022/04/23 00:41:45;;;;;;;0.50;0.50;;;;;;;6.59;80.18;99337.28;5096970;28;20067;-78
2022/04/23 00:44:16;;;;;;;0.50;0.50;;;;;;;6.62;80.21;99326.94;5114663;28;20157;-81
2022/04/23 00:46:44;;;;;;;0.40;0.40;;;;;;;6.66;80.20;99327.34;5096453;28;20077;-80
2022/04/23 00:49:12;;;;;;;0.43;0.43;;;;;;;6.66;80.22;99328.19;5114605;28;20047;-80
2022/04/23 00:51:41;;;;;;;0.40;0.40;;;;;;;6.69;80.02;99332.31;5113982;28;20047;-80
2022/04/23 00:54:08;;;;;;;0.40;0.40;;;;;;;6.70;80.07;99326.72;5096476;28;20538;-81
2022/04/23 00:56:40;;;;;;;0.40;0.40;;;;;;;6.77;80.16;99323.19;5114275;28;20051;-80
2022/04/23 00:59:09;;;;;;;0.47;0.47;;;;;;;6.80;80.05;99318.22;5114004;28;20043;-81
2022/04/23 01:01:36;;;;;;;0.40;0.40;;;;;;;6.80;79.92;99322.78;5113658;28;20225;-80
2022/04/23 01:04:06;;;;;;;0.40;0.40;;;;;;;6.78;79.89;99322.16;5113898;28;20051;-81
2022/04/23 01:06:36;;;;;;;0.50;0.50;;;;;;;6.81;79.88;99311.00;5113779;28;20441;-80
2022/04/23 01:09:08;;;;;;;0.40;0.40;;;;;;;6.79;79.45;99321.94;5095874;28;20428;-80
2022/04/23 01:11:36;;;;;;;0.40;0.40;;;;;;;6.72;79.71;99321.16;5095372;28;20134;-79
2022/04/23 01:14:03;;;;;;;0.40;0.40;;;;;;;6.66;79.70;99320.16;5114050;28;20143;-79
2022/04/23 01:16:31;;;;;;;0.43;0.43;;;;;;;6.65;79.99;99321.16;5113331;28;20093;-79
2022/04/23 01:18:59;;;;;;;0.40;0.40;;;;;;;6.60;80.00;99320.16;5095703;28;20533;-79
2022/04/23 01:21:27;;;;;;;0.50;0.50;;;;;;;6.54;80.66;99319.16;5113545;28;20051;-80
2022/04/23 01:23:57;;;;;;;0.40;0.40;;;;;;;6.61;80.61;99324.47;5113815;28;20051;-80
2022/04/23 01:26:29;;;;;;;0.40;0.40;;;;;;;6.63;80.62;99319.72;5113478;28;20048;-81
2022/04/23 01:28:57;;;;;;;0.50;0.50;;;;;;;6.52;81.00;99321.22;5095377;28;20081;-80
2022/04/23 01:31:25;;;;;;;0.50;0.50;;;;;;;6.49;81.35;99313.59;5113091;28;20048;-80
2022/04/23 01:33:52;;;;;;;0.50;0.50;;;;;;;6.55;81.39;99315.41;5095502;28;20058;-80
2022/04/23 01:36:20;;;;;;;0.40;0.40;;;;;;;6.59;81.27;99310.47;5113321;28;20063;-81
2022/04/23 01:38:48;;;;;;;0.50;0.50;;;;;;;6.60;81.17;99317.47;5094791;28;20146;-80
2022/04/23 01:41:15;;;;;;;0.50;0.50;;;;;;;6.60;81.33;99310.25;5113380;28;20048;-80
2022/04/23 01:43:42;;;;;;;0.40;0.40;;;;;;;6.60;81.43;99306.75;5112943;28;20437;-80
2022/04/23 01:46:09;;;;;;;0.40;0.40;;;;;;;6.59;81.44;99315.84;5113201;28;20486;-80
2022/04/23 01:48:36;;;;;;;0.40;0.40;;;;;;;6.61;81.50;99308.38;5112843;28;20468;-80
2022/04/23 01:51:04;;;;;;;0.50;0.50;;;;;;;6.62;81.53;99307.38;5112720;28;20052;-80
2022/04/23 01:53:31;;;;;;;0.50;0.50;;;;;;;6.64;81.53;99305.31;5112586;28;20078;-80
2022/04/23 01:55:58;;;;;;;0.50;0.50;;;;;;;6.66;81.58;99316.63;5112083;28;20047;-80
2022/04/23 01:58:26;;;;;;;0.40;0.40;;;;;;;6.65;81.62;99304.25;5094732;28;20048;-80
2022/04/23 02:00:54;;;;;;;0.50;0.50;;;;;;;6.69;81.58;99300.94;5112791;28;20054;-80
2022/04/23 02:03:22;;;;;;;0.40;0.40;;;;;;;6.71;81.45;99304.25;5094546;28;20092;-79
2022/04/23 02:05:53;;;;;;;0.40;0.40;;;;;;;6.70;81.39;99301.75;5112834;28;20104;-80
2022/04/23 02:08:20;;;;;;;0.40;0.40;;;;;;;6.65;81.62;99302.38;5112762;28;20048;-79
2022/04/23 02:10:47;;;;;;;0.50;0.50;;;;;;;6.65;81.53;99298.88;5112151;28;20044;-79
2022/04/23 02:13:15;;;;;;;0.50;0.50;;;;;;;6.65;81.66;99304.25;5112483;28;20047;-79
2022/04/23 02:15:42;;;;;;;0.40;0.40;;;;;;;6.65;81.93;99309.63;5094580;28;20040;-79
2022/04/23 02:18:10;;;;;;;0.50;0.50;;;;;;;6.64;82.02;99308.81;5094235;28;20039;-80
2022/04/23 02:20:38;;;;;;;0.50;0.50;;;;;;;6.64;82.46;99307.97;5112400;28;20047;-80
2022/04/23 02:23:06;;;;;;;0.50;0.50;;;;;;;6.64;82.34;99306.13;5112454;28;20058;-80
2022/04/23 02:25:36;;;;;;;0.40;0.40;;;;;;;6.66;82.26;99305.88;5112217;28;20482;-80
2022/04/23 02:28:04;;;;;;;0.50;0.50;;;;;;;6.66;82.22;99311.25;5112135;28;20048;-79
2022/04/23 02:30:32;;;;;;;0.50;0.50;;;;;;;6.66;82.44;99311.25;5111770;28;20051;-80
2022/04/23 02:32:59;;;;;;;0.50;0.50;;;;;;;6.65;82.59;99301.56;5112368;28;20471;-80
2022/04/23 02:35:27;;;;;;;0.50;0.50;;;;;;;6.70;82.43;99307.13;5093832;28;20529;-80
2022/04/23 02:38:00;;;;;;;0.40;0.40;;;;;;;6.73;82.50;99314.75;5112053;28;20047;-79
2022/04/23 02:40:28;;;;;;;0.40;0.40;;;;;;;6.75;82.50;99310.00;5111822;28;20096;-80
2022/04/23 02:42:56;;;;;;;0.40;0.40;;;;;;;6.77;82.54;99305.25;5112110;28;20039;-81
2022/04/23 02:45:25;;;;;;;0.45;0.45;;;;;;;6.77;82.26;99297.19;5112128;28;20070;-80
2022/04/23 02:47:55;;;;;;;0.47;0.47;;;;;;;6.81;82.35;99298.44;5112353;28;20055;-80
2022/04/23 02:50:34;;;;;;;0.50;0.50;;;;;;;6.83;82.38;99299.00;5112366;28;20077;-80
2022/04/23 02:53:04;;;;;;;0.50;0.50;;;;;;;6.87;82.55;99297.56;5113069;28;20406;-81
2022/04/23 02:55:33;;;;;;;0.50;0.50;;;;;;;6.91;82.48;99295.25;5112668;28;20047;-81
2022/04/23 02:58:07;;;;;;;0.40;0.40;;;;;;;6.97;82.35;99298.97;5112719;28;20040;-80
2022/04/23 03:00:41;;;;;;;0.50;0.50;;;;;;;6.96;82.37;99295.44;5112047;28;20082;-80
2022/04/23 03:03:09;;;;;;;0.50;0.50;;;;;;;6.89;82.20;99298.19;5111849;28;20050;-81
2022/04/23 03:05:37;;;;;;;0.50;0.50;;;;;;;6.86;82.69;99298.63;5111794;28;20260;-81
2022/04/23 03:08:04;;;;;;;0.50;0.50;;;;;;;6.89;82.54;99300.03;5111509;28;20554;-80
2022/04/23 03:10:31;;;;;;;0.50;0.50;;;;;;;6.93;82.35;99296.69;5111830;28;20043;-80
2022/04/23 03:13:00;;;;;;;0.50;0.50;;;;;;;7.02;82.01;99299.16;5112085;28;20052;-81
2022/04/23 03:15:28;;;;;;;0.50;0.50;;;;;;;7.02;82.17;99293.78;5111730;28;20055;-81
2022/04/23 03:18:08;;;;;;;0.43;0.43;;;;;;;7.07;82.03;99304.72;5093838;28;20047;-80
2022/04/23 03:20:36;;;;;;;0.40;0.40;;;;;;;7.09;82.05;99297.25;5111500;28;20050;-80
2022/04/23 03:23:04;;;;;;;0.50;0.50;;;;;;;7.07;82.14;99296.66;5111761;28;20050;-80
2022/04/23 03:25:32;;;;;;;0.50;0.50;;;;;;;7.04;82.21;99297.06;5093766;28;20055;-81
2022/04/23 03:28:02;;;;;;;0.50;0.50;;;;;;;7.04;82.62;99297.06;5111965;28;20071;-80
2022/04/23 03:30:30;;;;;;;0.50;0.50;;;;;;;7.08;82.70;99293.75;5111823;28;20199;-82
2022/04/23 03:32:59;;;;;;;0.50;0.50;;;;;;;7.10;82.74;99296.22;5112157;28;20052;-81
2022/04/23 03:35:27;;;;;;;0.50;0.50;;;;;;;7.11;82.58;99295.16;5076533;28;20054;-80
2022/04/23 03:37:55;;;;;;;0.50;0.50;;;;;;;7.10;82.42;99301.59;5111970;28;20062;-80
2022/04/23 03:40:24;;;;;;;0.50;0.50;;;;;;;7.13;82.31;99301.16;5094228;28;20126;-80
2022/04/23 03:42:51;;;;;;;0.50;0.50;;;;;;;7.15;82.67;99293.72;5111768;28;20134;-81
2022/04/23 03:45:18;;;;;;;0.50;0.50;;;;;;;7.23;82.58;99288.09;5111687;28;20047;-80
2022/04/23 03:47:47;;;;;;;0.50;0.50;;;;;;;7.30;82.43;99291.56;5111308;28;20039;-80
2022/04/23 03:50:16;;;;;;;0.52;0.52;;;;;;;7.18;81.91;99297.81;5111414;28;20133;-81
2022/04/23 03:52:44;;;;;;;0.40;0.40;;;;;;;7.11;82.12;99308.59;5111322;28;20039;-81
2022/04/23 03:55:11;;;;;;;0.50;0.50;;;;;;;7.07;82.57;99302.03;5111496;28;20086;-80
2022/04/23 03:57:46;;;;;;;0.50;0.50;;;;;;;7.09;82.55;99295.41;5111137;28;20050;-81
2022/04/23 04:00:14;;;;;;;0.50;0.50;;;;;;;7.15;82.45;99307.13;5111770;28;20139;-81
2022/04/23 04:02:43;;;;;;;0.40;0.40;;;;;;;7.18;82.62;99304.00;5111152;28;20487;-81
2022/04/23 04:05:11;;;;;;;0.50;0.50;;;;;;;7.22;82.36;99299.88;5111731;28;20039;-80
2022/04/23 04:07:43;;;;;;;0.40;0.40;;;;;;;7.26;82.14;99297.56;5111402;28;20481;-80
2022/04/23 04:10:12;;;;;;;0.50;0.50;;;;;;;7.23;81.80;99298.81;5111192;28;20052;-80
2022/04/23 04:12:40;;;;;;;0.50;0.50;;;;;;;7.27;81.65;99301.91;5093684;28;20414;-80
2022/04/23 04:15:15;;;;;;;0.40;0.40;;;;;;;7.39;81.57;99302.84;5111347;28;20055;-81
2022/04/23 04:17:44;;;;;;;0.40;0.40;;;;;;;7.51;81.35;99300.31;5111245;28;20047;-81
2022/04/23 04:20:12;;;;;;;0.50;0.50;;;;;;;7.61;81.04;99308.69;5114712;28;20055;-81
2022/04/23 04:22:46;;;;;;;0.50;0.50;;;;;;;7.66;80.96;99305.38;5114866;28;20051;-81
2022/04/23 04:25:17;;;;;;;0.40;0.40;;;;;;;7.60;80.83;99297.13;5114735;28;20083;-80
2022/04/23 04:27:44;;;;;;;0.40;0.40;;;;;;;7.60;80.95;99302.50;5114697;28;20059;-81
2022/04/23 04:30:12;;;;;;;0.40;0.40;;;;;;;7.62;81.01;99309.50;5080454;28;20112;-81
2022/04/23 04:32:41;;;;;;;0.50;0.50;;;;;;;7.60;81.24;99307.88;5079869;28;20497;-81
2022/04/23 04:35:09;;;;;;;0.40;0.40;;;;;;;7.64;80.98;99318.19;5114970;28;20048;-79
2022/04/23 04:37:37;;;;;;;0.43;0.43;;;;;;;7.56;81.43;99306.66;5098748;28;20043;-81
2022/04/23 04:40:05;;;;;;;0.50;0.50;;;;;;;7.58;81.67;99309.97;5122112;28;20039;-80
2022/04/23 04:42:32;;;;;;;0.50;0.50;;;;;;;7.63;81.23;99301.25;5134853;28;20040;-81
2022/04/23 04:45:00;;;;;;;0.50;0.50;;;;;;;7.69;81.08;99302.25;5116381;28;20097;-80
2022/04/23 04:47:30;;;;;;;0.50;0.50;;;;;;;7.77;81.10;99300.13;5117410;28;20101;-82
2022/04/23 04:49:57;;;;;;;0.50;0.50;;;;;;;7.81;80.70;99293.25;5115678;28;20051;-81
2022/04/23 04:52:24;;;;;;;0.50;0.50;;;;;;;7.90;80.38;99303.72;5114316;28;20054;-81
2022/04/23 04:54:56;;;;;;;0.50;0.50;;;;;;;7.99;79.72;99305.09;5079823;28;20066;-80
2022/04/23 04:57:23;;;;;;;0.50;0.50;;;;;;;8.10;79.54;99301.69;5114645;28;20154;-81
2022/04/23 04:59:54;;;;;;;0.50;0.50;;;;;;;8.20;79.44;99302.00;5116259;27;20067;-81
2022/04/23 05:02:21;;;;;;;0.50;0.50;;;;;;;8.33;79.21;99300.22;4758698;27;9999759;-80
2022/04/23 05:04:52;;;;;;;0.50;0.50;;;;;;;8.46;78.75;99297.44;5121034;27;20050;-81
2022/04/23 05:07:19;;;;;;;0.50;0.50;;;;;;;8.52;78.82;99296.53;5084627;27;20039;-82
2022/04/23 05:09:49;;;;;;;0.50;0.50;;;;;;;8.61;78.57;99303.28;5098506;27;20168;-82
2022/04/23 05:12:16;;;;;;;0.50;0.50;;;;;;;8.60;78.25;99293.53;5121979;27;20054;-81
2022/04/23 05:14:43;;;;;;;0.50;0.50;;;;;;;8.53;78.14;99300.84;5111889;27;20519;-81
2022/04/23 05:17:16;;;;;;;0.40;0.40;;;;;;;8.49;78.11;99296.16;5120150;27;20051;-80
2022/04/23 05:19:44;;;;;;;0.50;0.50;;;;;;;8.51;78.15;99286.81;5114981;27;20505;-80
2022/04/23 05:22:11;;;;;;;0.50;0.50;;;;;;;8.57;77.86;99294.00;5114536;27;20051;-81
2022/04/23 05:24:38;;;;;;;0.40;0.40;;;;;;;8.73;77.46;99289.88;5102203;27;20061;-79
2022/04/23 05:27:09;;;;;;;0.50;0.50;;;;;;;8.91;76.60;99283.63;5113298;27;20054;-80
2022/04/23 05:29:37;;;;;;;0.50;0.50;;;;;;;9.09;76.16;99293.59;5102271;28;20115;-79
2022/04/23 05:32:04;;;;;;;0.40;0.40;;;;;;;9.23;75.49;99280.75;5093731;27;20085;-80
2022/04/23 05:34:34;;;;;;;0.50;0.50;;;;;;;9.34;74.62;99279.94;5083423;28;20050;-81
2022/04/23 05:37:02;;;;;;;0.40;0.40;;;;;;;9.50;73.61;99268.53;5126412;27;20532;-80
2022/04/23 05:39:29;;;;;;;0.50;0.50;;;;;;;9.67;72.74;99268.69;5128354;27;20093;-80
2022/04/23 05:41:56;;;;;;;0.50;0.50;;;;;;;9.80;72.11;99262.25;5121764;27;20162;-83
2022/04/23 05:44:23;;;;;;;0.50;0.50;;;;;;;10.02;71.92;99265.19;5082801;27;20047;-81
2022/04/23 05:46:50;;;;;;;0.50;0.50;;;;;;;10.23;71.04;99271.88;5104000;28;20071;-83
2022/04/23 05:49:18;;;;;;;0.50;0.50;;;;;;;10.38;70.36;99274.09;5075340;28;20053;-82
2022/04/23 05:52:05;;;;;;;0.50;0.50;;;;;;;10.47;69.98;99271.88;5095516;27;20043;-82
2022/04/23 05:54:32;;;;;;;0.50;0.50;;;;;;;10.66;69.45;99277.91;5098596;27;20094;-83
2022/04/23 05:57:00;;;;;;;0.50;0.50;;;;;;;10.76;68.19;99270.88;5126735;27;20044;-81
2022/04/23 05:59:30;;;;;;;0.43;0.43;;;;;;;10.77;67.56;99274.38;5101869;27;20074;-81
2022/04/23 06:01:57;;;;;;;0.43;0.43;;;;;;;10.84;67.08;99266.97;5129990;27;20098;-83
2022/04/23 06:04:26;;;;;;;0.40;0.40;;;;;;;10.95;66.52;99276.09;5125458;27;20051;-83
2022/04/23 06:06:54;;;;;;;0.50;0.50;;;;;;;11.05;65.35;99273.59;5077122;28;20047;-81
2022/04/23 06:09:21;;;;;;;0.47;0.47;;;;;;;11.13;64.88;99275.88;5110519;28;20051;-82
2022/04/23 06:11:48;;;;;;;0.50;0.50;;;;;;;11.30;64.02;99275.13;5108444;28;20079;-83
2022/04/23 06:14:16;;;;;;;0.40;0.40;;;;;;;11.35;62.76;99265.22;5095311;28;20691;-80
2022/04/23 06:16:43;;;;;;;0.50;0.50;;;;;;;11.10;62.76;99276.38;5122825;27;20130;-82
2022/04/23 06:19:10;;;;;;;0.40;0.40;;;;;;;11.03;62.40;99278.41;5115797;27;20073;-81
2022/04/23 06:21:40;;;;;;;0.50;0.50;;;;;;;11.01;62.85;99272.41;5095125;28;20051;-82
2022/04/23 06:24:07;;;;;;;0.50;0.50;;;;;;;11.22;62.94;99273.63;5113335;28;20039;-83
2022/04/23 06:26:39;;;;;;;0.40;0.40;;;;;;;11.39;60.69;99277.16;5111997;28;20525;-81
2022/04/23 06:29:09;;;;;;;0.50;0.50;;;;;;;11.42;61.12;99267.75;5119818;27;20047;-81
2022/04/23 06:31:36;;;;;;;0.40;0.40;;;;;;;11.63;60.60;99267.06;5113937;27;20040;-82
2022/04/23 06:34:04;;;;;;;0.40;0.40;;;;;;;11.68;59.42;99275.25;5076833;28;20054;-81
2022/04/23 06:36:31;;;;;;;0.40;0.40;;;;;;;11.60;59.57;99269.44;5112236;28;20134;-81
2022/04/23 06:38:58;;;;;;;0.40;0.40;;;;;;;11.68;59.94;99269.84;5112356;28;20132;-83
2022/04/23 06:41:25;;;;;;;0.40;0.40;;;;;;;11.80;59.61;99280.59;5116120;28;20415;-81
2022/04/23 06:43:55;;;;;;;0.40;0.40;;;;;;;11.68;59.59;99279.84;5094747;28;20596;-82
2022/04/23 06:46:22;;;;;;;0.40;0.40;;;;;;;11.66;60.06;99287.38;5113178;28;20135;-82
2022/04/23 06:48:49;;;;;;;0.50;0.50;;;;;;;11.53;59.93;99275.00;5111567;28;20087;-82
2022/04/23 06:51:17;;;;;;;0.50;0.50;;;;;;;11.56;60.34;99277.19;5112186;28;20577;-81
2022/04/23 06:53:44;;;;;;;0.50;0.50;;;;;;;11.63;60.16;99279.75;5112196;28;20044;-81
2022/04/23 06:56:11;;;;;;;0.50;0.50;;;;;;;12.00;58.88;99285.53;5112145;28;20057;-84
2022/04/23 06:58:38;;;;;;;0.60;0.60;;;;;;;12.35;57.78;99287.94;5112255;28;20063;-83
2022/04/23 07:01:05;;;;;;;0.50;0.50;;;;;;;12.42;55.80;99281.53;5111970;28;20043;-82
2022/04/23 07:03:32;;;;;;;0.50;0.50;;;;;;;12.30;55.26;99281.63;5112115;28;20448;-82
2022/04/23 07:05:59;;;;;;;0.50;0.50;;;;;;;12.34;56.39;99274.66;5112158;28;20044;-82
2022/04/23 07:08:29;;;;;;;0.40;0.40;;;;;;;12.50;56.76;99271.06;5111765;28;20039;-82
2022/04/23 07:10:56;;;;;;;0.50;0.50;;;;;;;12.80;55.88;99267.13;5093829;28;20043;-82
2022/04/23 07:13:23;;;;;;;0.40;0.40;;;;;;;12.99;54.60;99257.59;5111696;28;20479;-81
2022/04/23 07:15:50;;;;;;;0.40;0.40;;;;;;;13.02;53.91;99261.69;5111802;28;20063;-80
2022/04/23 07:18:17;;;;;;;0.50;0.50;;;;;;;12.94;53.44;99262.97;5076525;28;20047;-81
2022/04/23 07:20:45;;;;;;;0.50;0.50;;;;;;;13.06;53.94;99259.28;5110959;28;20540;-81
2022/04/23 07:25:57;;;;;;;0.60;0.60;;;;;;;13.53;52.52;99262.22;5116069;28;20073;-82
2022/04/23 07:28:25;;;;;;;0.50;0.50;;;;;;;13.68;51.96;99250.69;5094240;28;20155;-82
2022/04/23 07:30:53;;;;;;;0.50;0.50;;;;;;;13.93;52.25;99252.00;5076749;28;20044;-82
2022/04/23 07:39:01;;;;;;;0.50;0.50;;;;;;;14.47;49.26;99254.47;5112291;28;20043;-81
2022/04/23 07:41:28;;;;;;;0.50;0.50;;;;;;;14.24;49.96;99253.81;5112389;28;20138;-81
2022/04/23 07:43:58;;;;;;;0.50;0.50;;;;;;;14.21;50.04;99251.63;5111822;28;20056;-82
2022/04/23 07:46:26;;;;;;;0.50;0.50;;;;;;;14.28;49.88;99254.09;5111419;28;20162;-83
2022/04/23 07:48:53;;;;;;;0.40;0.40;;;;;;;14.01;50.40;99244.16;5111000;28;20055;-82
2022/04/23 07:51:20;;;;;;;0.40;0.40;;;;;;;13.40;50.92;99239.06;5109843;28;20139;-80
2022/04/23 07:53:48;;;;;;;0.40;0.40;;;;;;;13.22;50.89;99248.38;5092778;28;20134;-82
2022/04/23 07:56:17;;;;;;;0.40;0.40;;;;;;;13.05;50.42;99246.81;5077244;28;20075;-81
2022/04/23 07:58:44;;;;;;;0.40;0.40;;;;;;;12.98;51.41;99249.72;4768426;27;9999870;-79
2022/04/23 08:01:11;;;;;;;0.40;0.40;;;;;;;13.15;51.57;99241.50;5130797;27;20592;-81
2022/04/23 08:03:39;;;;;;;0.40;0.40;;;;;;;13.36;51.47;99243.38;5131540;27;20047;-81
2022/04/23 08:06:07;;;;;;;0.40;0.40;;;;;;;13.11;51.84;99241.19;5130296;27;20109;-79
2022/04/23 08:08:34;;;;;;;0.40;0.40;;;;;;;12.66;53.12;99244.19;5132642;27;20066;-81
2022/04/23 08:11:02;;;;;;;0.50;0.50;;;;;;;12.53;53.18;99239.97;5132522;27;20093;-82
2022/04/23 08:13:29;;;;;;;0.40;0.40;;;;;;;12.53;53.11;99245.41;5113994;27;20058;-81
2022/04/23 08:15:56;;;;;;;0.40;0.40;;;;;;;12.71;52.61;99236.13;5132158;27;20062;-81
2022/04/23 08:18:27;;;;;;;0.40;0.40;;;;;;;12.67;52.10;99238.53;5131286;27;20050;-81
2022/04/23 08:20:54;;;;;;;0.40;0.40;;;;;;;12.53;52.43;99232.69;5130261;27;20082;-81
2022/04/23 08:23:21;;;;;;;0.40;0.40;;;;;;;12.60;52.38;99239.81;5130137;27;20053;-83
2022/04/23 08:25:48;;;;;;;0.40;0.40;;;;;;;12.42;52.62;99235.53;5132385;27;20051;-82
2022/04/23 08:31:01;;;;;;;0.60;0.60;;;;;;;13.35;50.53;99241.75;5132198;27;20047;-82
2022/04/23 08:33:57;;;;;;;0.70;0.70;;;;;;;14.60;47.89;99235.00;5133202;27;20092;-82
2022/04/23 08:36:16;;;;;;;0.60;0.60;;;;;;;15.03;45.78;99229.44;5134666;27;20096;-82
2022/04/23 08:38:43;;;;;;;0.50;0.50;;;;;;;14.48;47.11;99231.66;5134866;27;20043;-83
2022/04/23 08:41:12;;;;;;;0.60;0.60;;;;;;;14.91;46.46;99232.41;5132547;27;20072;-83
2022/04/23 08:43:43;;;;;;;0.60;0.60;;;;;;;15.45;45.07;99234.69;5130703;27;20047;-81
2022/04/23 08:46:11;;;;;;;0.60;0.60;;;;;;;15.40;44.71;99226.53;5130204;27;20063;-81
2022/04/23 08:48:39;;;;;;;0.60;0.60;;;;;;;15.58;44.29;99231.44;5130407;27;20574;-80
2022/04/23 08:51:12;;;;;;;0.60;0.60;;;;;;;16.12;43.57;99229.22;5124999;27;20868;-81
2022/04/23 08:53:40;;;;;;;0.60;0.60;;;;;;;16.20;43.26;99220.50;5147670;27;20050;-82
2022/04/23 08:56:08;;;;;;;0.40;0.40;;;;;;;16.15;43.13;99223.22;5137260;27;20119;-83
2022/04/23 08:58:39;;;;;;;0.40;0.40;;;;;;;15.33;44.53;99232.22;5138599;27;20039;-83
2022/04/23 09:01:07;;;;;;;0.40;0.40;;;;;;;14.70;45.65;99236.94;5137973;27;20050;-84
2022/04/23 09:03:34;;;;;;;0.40;0.40;;;;;;;14.28;46.62;99222.34;5122687;27;20043;-83
2022/04/23 09:06:04;;;;;;;0.50;0.50;;;;;;;14.54;46.37;99227.13;5136677;27;20092;-84
2022/04/23 09:08:31;;;;;;;0.40;0.40;;;;;;;14.39;46.54;99222.41;5136614;27;20061;-84
2022/04/23 09:10:58;;;;;;;0.40;0.40;;;;;;;14.31;47.04;99221.00;5136428;27;20043;-85
2022/04/23 09:13:30;;;;;;;0.40;0.40;;;;;;;14.51;47.09;99231.16;5135938;27;20065;-83
2022/04/23 09:24:48;;;;;;;0.50;0.50;;;;;;;14.74;46.83;99228.00;5135305;27;20047;-84
2022/04/23 09:27:28;;;;;;;0.40;0.40;;;;;;;14.39;48.20;99225.94;5119715;27;20051;-85
2022/04/23 09:30:07;;;;;;;0.40;0.40;;;;;;;14.31;48.37;99213.69;5135586;27;20080;-85
2022/04/23 09:33:00;;;;;;;0.40;0.40;;;;;;;14.03;48.76;99219.50;5134574;27;20080;-82
2022/04/23 09:35:27;;;;;;;0.40;0.40;;;;;;;13.97;49.26;99220.53;5133586;27;20054;-83
2022/04/23 09:38:13;;;;;;;0.40;0.40;;;;;;;13.74;49.49;99216.28;5133008;27;20051;-82
2022/04/23 09:40:40;;;;;;;0.40;0.40;;;;;;;13.89;48.64;99208.25;5134426;27;20138;-83
2022/04/23 09:43:11;;;;;;;0.40;0.40;;;;;;;13.93;49.06;99219.44;5135924;27;20111;-82
2022/04/23 09:45:47;;;;;;;0.40;0.40;;;;;;;13.96;48.37;99213.47;5134026;27;20142;-82
2022/04/23 09:48:16;;;;;;;0.30;0.30;;;;;;;14.31;47.70;99213.69;5135583;27;20047;-82
2022/04/23 09:50:45;;;;;;;0.30;0.30;;;;;;;14.46;47.70;99214.84;5132041;27;20045;-83
2022/04/23 09:53:13;;;;;;;0.40;0.40;;;;;;;14.68;46.86;99220.91;5133566;27;20533;-82
2022/04/23 09:55:41;;;;;;;0.60;0.60;;;;;;;14.90;46.08;99211.75;5132276;27;20108;-83
2022/04/23 09:58:10;;;;;;;0.60;0.60;;;;;;;15.26;44.26;99209.91;5134546;27;20043;-83
2022/04/23 10:00:39;;;;;;;0.40;0.40;;;;;;;15.42;43.58;99204.47;5133829;27;20047;-83
2022/04/23 10:03:08;;;;;;;0.40;0.40;;;;;;;15.41;43.45;99203.66;5133581;27;20092;-82
2022/04/23 10:05:41;;;;;;;0.40;0.40;;;;;;;15.35;43.38;99204.78;5133377;27;20103;-83
2022/04/23 10:08:13;;;;;;;0.40;0.40;;;;;;;14.95;44.22;99203.63;5133693;27;20078;-81
2022/04/23 10:10:43;;;;;;;0.40;0.40;;;;;;;15.04;44.49;99206.63;5131928;27;20051;-82
2022/04/23 10:13:12;;;;;;;0.40;0.40;;;;;;;14.99;44.79;99206.59;5131636;27;20039;-83
2022/04/23 10:15:41;;;;;;;0.50;0.50;;;;;;;15.08;43.88;99208.53;5132538;27;20077;-82
2022/04/23 10:18:10;;;;;;;0.50;0.50;;;;;;;16.32;42.01;99198.41;5120554;27;20055;-82
2022/04/23 10:20:40;;;;;;;0.70;0.70;;;;;;;17.15;39.93;99199.66;5123134;27;20044;-85
2022/04/23 10:23:17;;;;;;;0.40;0.40;;;;;;;17.32;39.57;99191.91;5099377;27;20056;-87
2022/04/23 10:26:26;;;;;;;0.30;0.30;;;;;;;16.45;40.93;99193.16;5093079;28;20051;-82
2022/04/23 10:28:56;;;;;;;0.32;0.32;;;;;;;16.07;41.07;99191.13;5096272;27;20085;-83
2022/04/23 10:31:23;;;;;;;0.40;0.40;;;;;;;15.67;41.53;99204.47;5121298;27;20051;-84
2022/04/23 10:33:52;;;;;;;0.40;0.40;;;;;;;15.63;41.71;99186.28;5116922;27;20050;-82
2022/04/23 10:36:20;;;;;;;0.75;0.75;;;;;;;16.73;39.55;99184.59;5121339;27;20101;-82
2022/04/23 10:38:56;;;;;;;0.80;0.80;;;;;;;18.43;37.10;99185.66;5086572;28;20621;-82
2022/04/23 10:41:26;;;;;;;0.70;0.70;;;;;;;19.70;35.39;99179.50;5101969;27;20082;-83
2022/04/23 10:44:03;;;;;;;0.70;0.70;;;;;;;20.20;32.83;99184.31;5112559;27;20043;-86
2022/04/23 10:46:39;;;;;;;0.70;0.70;;;;;;;20.43;33.39;99180.56;5131709;27;20096;-84
2022/04/23 10:49:20;;;;;;;0.45;0.45;;;;;;;20.19;33.66;99191.72;5111374;28;20056;-83
2022/04/23 10:51:55;;;;;;;0.40;0.40;;;;;;;18.84;36.09;99187.91;5113397;28;20047;-83
2022/04/23 10:54:45;;;;;;;0.60;0.60;;;;;;;19.30;34.44;99170.81;5095385;28;20044;-84
2022/04/23 10:57:13;;;;;;;0.70;0.70;;;;;;;19.87;33.83;99174.22;5114374;27;20047;-84
2022/04/23 10:59:43;;;;;;;0.70;0.70;;;;;;;20.37;32.55;99186.47;5125985;27;20043;-83
2022/04/23 11:02:19;;;;;;;0.70;0.70;;;;;;;20.98;31.43;99176.94;5113763;28;20066;-82
2022/04/23 11:13:50;;;;;;;0.60;0.60;;;;;;;22.51;29.75;99164.00;5114584;27;20056;-81
2022/04/23 11:16:18;;;;;;;0.57;0.57;;;;;;;22.92;28.62;99158.06;5099133;28;20506;-82
2022/04/23 11:18:48;;;;;;;0.30;0.30;;;;;;;21.34;30.45;99154.94;5103652;28;20052;-82
2022/04/23 11:21:23;;;;;;;0.60;0.60;;;;;;;21.32;30.74;99150.91;5112683;28;20117;-82
2022/04/23 11:23:51;;;;;;;0.60;0.60;;;;;;;21.83;30.54;99152.41;5113855;28;20051;-83
2022/04/23 11:26:22;;;;;;;0.43;0.43;;;;;;;22.34;29.49;99153.75;5104669;28;20047;-82
2022/04/23 11:28:59;;;;;;;0.50;0.50;;;;;;;21.82;29.62;99153.50;5132369;27;20051;-81
2022/04/23 11:31:27;;;;;;;0.50;0.50;;;;;;;22.25;29.76;99152.91;5100196;27;20058;-81
2022/04/23 11:33:56;;;;;;;0.52;0.52;;;;;;;22.68;28.19;99146.72;5120674;27;20043;-81
2022/04/23 11:36:34;;;;;;;0.57;0.57;;;;;;;23.20;27.87;99146.78;5124363;27;20145;-82
2022/04/23 11:39:09;;;;;;;0.60;0.60;;;;;;;24.03;26.47;99137.38;5120277;27;20048;-82
2022/04/23 11:41:38;;;;;;;0.60;0.60;;;;;;;23.34;26.73;99136.38;5135733;27;20051;-82
2022/04/23 11:44:45;;;;;;;0.50;0.50;;;;;;;24.08;26.94;99126.16;5125510;27;20058;-81
2022/04/23 11:47:09;;;;;;;0.50;0.50;;;;;;;24.31;26.58;99129.44;5125937;27;20048;-81
2022/04/23 11:49:40;;;;;;;0.30;0.30;;;;;;;22.86;27.05;99142.03;5106428;28;20105;-82
2022/04/23 11:52:10;;;;;;;0.20;0.20;;;;;;;21.31;28.83;99132.81;5128820;27;20051;-81
2022/04/23 11:54:38;;;;;;;0.20;0.20;;;;;;;19.45;31.16;99136.91;5099838;28;20044;-81
2022/04/23 11:57:08;;;;;;;0.20;0.20;;;;;;;18.37;32.82;99133.00;5126732;27;20050;-83
2022/04/23 11:59:43;;;;;;;0.30;0.30;;;;;;;17.98;34.06;99142.19;5136983;27;20051;-82
2022/04/23 12:02:26;;;;;;;0.30;0.30;;;;;;;17.92;34.60;99126.16;5130266;27;20147;-84
2022/04/23 12:05:01;;;;;;;0.30;0.30;;;;;;;17.75;34.70;99138.31;5135824;27;20073;-82
2022/04/23 12:07:31;;;;;;;0.30;0.30;;;;;;;17.59;35.11;99136.81;5111708;27;20047;-82
2022/04/23 12:10:01;;;;;;;0.30;0.30;;;;;;;17.51;35.07;99132.00;5134055;27;20054;-80
2022/04/23 12:12:33;;;;;;;0.30;0.30;;;;;;;17.67;34.89;99129.94;5125497;27;20047;-79
2022/04/23 12:15:05;;;;;;;0.50;0.50;;;;;;;18.41;33.69;99128.59;5106834;27;20043;-80
2022/04/23 12:17:47;;;;;;;0.50;0.50;;;;;;;19.15;32.52;99119.09;5135509;27;20505;-79